Time;durP1;ratioP1;P1;durP2;ratioP2;P2;SDS_P1;SDS_P2;PMS_P1;PMS_P2;Temp;Humidity;BMP_temperature;BMP_pressure;BME280_temperature;BME280_humidity;BME280_pressure;Samples;Min_cycle;Max_cycle;Signal;HPM_P1;HPM_P2
2021/11/21 00:00:33;;;;;;;76.53;24.55;;;;;;;4.10;100.00;99331.31;5044657;28;20770;-62
2021/11/21 00:02:59;;;;;;;68.00;23.65;;;;;;;4.06;100.00;99319.47;5045269;28;20045;-62
2021/11/21 00:05:25;;;;;;;66.90;23.55;;;;;;;4.05;100.00;99322.31;5042655;28;20056;-62
2021/11/21 00:07:50;;;;;;;73.68;22.88;;;;;;;4.03;100.00;99317.22;5043307;28;20039;-62
2021/11/21 00:10:16;;;;;;;49.83;17.83;;;;;;;3.99;100.00;99318.59;5043897;28;20037;-62
2021/11/21 00:12:41;;;;;;;50.25;17.70;;;;;;;4.03;100.00;99314.56;5044893;28;20052;-62
2021/11/21 00:15:07;;;;;;;77.18;25.67;;;;;;;4.01;100.00;99311.28;5030960;28;20537;-62
2021/11/21 00:17:32;;;;;;;80.28;26.50;;;;;;;4.01;100.00;99302.50;5043877;28;20104;-62
2021/11/21 00:19:58;;;;;;;65.70;21.17;;;;;;;3.98;100.00;99303.72;5044356;28;20072;-62
2021/11/21 00:22:25;;;;;;;77.75;24.35;;;;;;;3.92;100.00;99306.34;5044493;28;20044;-62
2021/11/21 00:24:51;;;;;;;72.40;23.40;;;;;;;3.98;100.00;99301.06;5044869;28;20048;-62
2021/11/21 00:27:16;;;;;;;58.08;20.42;;;;;;;3.96;100.00;99297.78;5043875;28;20040;-62
2021/11/21 00:29:42;;;;;;;72.95;24.67;;;;;;;3.93;100.00;99298.19;5044672;28;20029;-62
2021/11/21 00:32:07;;;;;;;87.65;26.60;;;;;;;3.95;100.00;99298.81;5044370;28;20032;-62
2021/11/21 00:34:33;;;;;;;66.28;22.83;;;;;;;3.91;100.00;99286.97;5044099;28;20057;-63
2021/11/21 00:36:58;;;;;;;83.35;26.00;;;;;;;3.94;100.00;99286.56;5041706;28;20091;-62
2021/11/21 00:39:24;;;;;;;61.33;20.50;;;;;;;3.88;100.00;99277.56;5043774;28;20517;-62
2021/11/21 00:41:50;;;;;;;46.58;16.98;;;;;;;3.92;100.00;99280.66;5044600;28;20218;-62
2021/11/21 00:44:15;;;;;;;84.05;25.63;;;;;;;3.95;100.00;99285.56;5044754;28;20244;-62
2021/11/21 00:46:41;;;;;;;61.17;21.58;;;;;;;3.88;100.00;99280.22;5043525;28;20044;-62
2021/11/21 00:49:13;;;;;;;78.60;24.65;;;;;;;3.92;100.00;99272.72;5043918;28;20032;-62
2021/11/21 00:51:38;;;;;;;75.05;23.17;;;;;;;3.93;100.00;99274.31;5037257;28;20045;-62
2021/11/21 00:54:09;;;;;;;55.78;19.13;;;;;;;3.95;100.00;99269.66;5043987;28;20554;-62
2021/11/21 00:56:34;;;;;;;;;;;;;;;3.96;100.00;99265.16;5045128;28;20172;-62
2021/11/21 00:59:00;;;;;;;73.25;23.30;;;;;;;3.94;100.00;99261.88;5043654;28;20022;-62
2021/11/21 01:01:25;;;;;;;79.68;25.48;;;;;;;3.94;100.00;99257.38;5042644;28;20065;-61
2021/11/21 01:03:52;;;;;;;67.90;22.67;;;;;;;3.89;100.00;99251.88;5037571;28;20044;-60
2021/11/21 01:06:17;;;;;;;56.22;20.05;;;;;;;3.94;100.00;99246.78;5033559;28;20099;-61
2021/11/21 01:08:43;;;;;;;39.53;15.30;;;;;;;3.92;100.00;99243.53;5043770;28;20029;-61
2021/11/21 01:11:09;;;;;;;50.92;18.83;;;;;;;3.97;100.00;99235.78;5043377;28;20048;-61
2021/11/21 01:13:35;;;;;;;82.78;26.65;;;;;;;3.99;100.00;99227.63;5041303;28;20037;-61
2021/11/21 01:16:01;;;;;;;69.25;24.33;;;;;;;4.00;100.00;99230.09;5029341;28;20548;-61
2021/11/21 01:18:27;;;;;;;57.25;20.95;;;;;;;4.01;100.00;99226.41;5043428;28;20029;-61
2021/11/21 01:20:52;;;;;;;53.83;18.80;;;;;;;3.97;100.00;99222.53;5042929;28;20174;-61
2021/11/21 01:23:18;;;;;;;64.60;21.60;;;;;;;4.02;100.00;99222.75;5042274;28;20025;-63
2021/11/21 01:25:44;;;;;;;67.47;22.98;;;;;;;4.07;100.00;99209.72;5042827;28;20041;-61
2021/11/21 01:28:10;;;;;;;58.83;21.60;;;;;;;4.01;100.00;99207.03;5042423;28;20028;-61
2021/11/21 01:30:36;;;;;;;64.50;21.80;;;;;;;4.02;100.00;99206.00;5039343;28;20052;-61
2021/11/21 01:33:02;;;;;;;59.95;22.25;;;;;;;4.04;100.00;99199.50;5042664;28;20033;-61
2021/11/21 01:35:27;;;;;;;55.80;21.75;;;;;;;4.15;100.00;99210.53;5041420;28;20044;-61
2021/11/21 01:37:53;;;;;;;53.50;21.73;;;;;;;4.07;100.00;99207.06;5042066;28;20028;-62
2021/11/21 01:40:19;;;;;;;58.67;21.45;;;;;;;4.05;100.00;99195.81;5043617;28;20033;-62
2021/11/21 01:42:46;;;;;;;52.30;20.38;;;;;;;4.15;100.00;99189.31;5042932;28;20048;-62
2021/11/21 01:45:12;;;;;;;48.28;20.58;;;;;;;4.14;100.00;99191.13;5039001;28;20032;-62
2021/11/21 01:47:38;;;;;;;48.97;19.90;;;;;;;4.12;100.00;99190.53;5041172;28;20118;-62
2021/11/21 01:50:05;;;;;;;42.42;18.85;;;;;;;4.14;100.00;99175.22;5042199;28;20025;-61
2021/11/21 01:52:31;;;;;;;23.77;10.93;;;;;;;4.03;100.00;99181.94;5040898;28;20029;-62
2021/11/21 01:54:58;;;;;;;47.72;18.38;;;;;;;4.02;100.00;99175.00;5043097;28;20139;-61
2021/11/21 01:57:24;;;;;;;47.90;18.48;;;;;;;4.03;100.00;99168.69;5041413;28;20037;-62
2021/11/21 01:59:50;;;;;;;40.90;16.73;;;;;;;4.02;100.00;99169.72;5042986;28;20032;-62
2021/11/21 02:02:15;;;;;;;44.53;18.23;;;;;;;4.07;100.00;99161.16;5042355;28;20772;-62
2021/11/21 02:04:41;;;;;;;42.28;17.25;;;;;;;4.06;100.00;99165.63;5042255;28;20048;-62
2021/11/21 02:07:07;;;;;;;35.70;15.77;;;;;;;4.06;100.00;99159.50;5039198;28;20040;-62
2021/11/21 02:09:32;;;;;;;42.42;19.08;;;;;;;4.08;100.00;99152.16;5041939;28;20032;-62
2021/11/21 02:11:58;;;;;;;42.38;16.83;;;;;;;4.05;100.00;99141.97;5042208;28;20045;-62
2021/11/21 02:14:23;;;;;;;48.97;18.98;;;;;;;4.06;100.00;99138.28;5042683;28;20037;-62
2021/11/21 02:16:49;;;;;;;46.40;20.02;;;;;;;4.02;100.00;99137.88;5041204;28;20037;-62
2021/11/21 02:19:16;;;;;;;35.05;15.90;;;;;;;4.04;100.00;99135.84;5042314;28;20033;-62
2021/11/21 02:21:41;;;;;;;42.58;15.85;;;;;;;4.05;100.00;99132.16;5036305;28;20094;-62
2021/11/21 02:24:07;;;;;;;44.70;18.27;;;;;;;4.09;100.00;99122.81;5041589;28;20024;-62
2021/11/21 02:26:32;;;;;;;45.53;19.13;;;;;;;4.09;100.00;99121.97;5040981;28;20103;-62
2021/11/21 02:28:58;;;;;;;47.88;19.17;;;;;;;4.05;100.00;99121.56;5042234;28;20071;-62
2021/11/21 02:31:23;;;;;;;47.00;19.13;;;;;;;4.10;100.00;99119.13;5039032;28;20087;-62
2021/11/21 02:33:50;;;;;;;50.03;19.05;;;;;;;4.17;100.00;99126.25;5033882;28;20071;-62
2021/11/21 02:36:16;;;;;;;43.35;19.20;;;;;;;4.18;100.00;99126.06;5038106;28;20033;-62
2021/11/21 02:38:42;;;;;;;51.92;20.58;;;;;;;4.15;100.00;99133.63;5041975;28;20098;-62
2021/11/21 02:41:08;;;;;;;51.88;18.88;;;;;;;4.15;100.00;99123.81;5041819;28;20052;-62
2021/11/21 02:43:34;;;;;;;46.58;18.42;;;;;;;4.26;100.00;99128.50;5042019;28;20057;-62
2021/11/21 02:45:59;;;;;;;47.80;17.98;;;;;;;4.26;100.00;99133.81;5041708;28;20527;-62
2021/11/21 02:48:27;;;;;;;57.90;21.15;;;;;;;4.23;100.00;99131.56;5041518;28;20029;-62
2021/11/21 02:50:53;;;;;;;51.60;18.95;;;;;;;4.21;100.00;99130.94;5040986;28;20055;-62
2021/11/21 02:53:20;;;;;;;39.83;16.52;;;;;;;4.25;100.00;99132.19;5043026;28;20037;-62
2021/11/21 02:55:46;;;;;;;33.15;14.82;;;;;;;4.20;100.00;99129.31;5042231;28;20052;-62
2021/11/21 02:58:11;;;;;;;33.95;14.98;;;;;;;4.17;100.00;99118.28;5042170;28;20527;-62
2021/11/21 03:00:37;;;;;;;35.88;15.93;;;;;;;4.19;100.00;99106.44;5041465;28;20041;-62
2021/11/21 03:03:03;;;;;;;40.65;16.63;;;;;;;4.20;100.00;99102.00;5043547;28;20537;-62
2021/11/21 03:05:29;;;;;;;37.00;15.73;;;;;;;4.21;100.00;99093.81;5045081;28;20056;-62
2021/11/21 03:07:54;;;;;;;38.45;15.98;;;;;;;4.20;100.00;99086.06;5043251;28;20228;-62
2021/11/21 03:10:20;;;;;;;39.38;15.98;;;;;;;4.18;100.00;99088.91;5043315;28;20112;-61
2021/11/21 03:12:47;;;;;;;37.75;15.68;;;;;;;4.22;100.00;99086.66;5038503;28;20021;-62
2021/11/21 03:15:13;;;;;;;39.38;16.25;;;;;;;4.27;100.00;99081.59;5043323;28;20124;-62
2021/11/21 03:17:42;;;;;;;53.75;20.40;;;;;;;4.25;100.00;99087.09;5044322;28;20033;-62
2021/11/21 03:20:08;;;;;;;40.63;17.00;;;;;;;4.27;100.00;99093.00;5038225;28;20486;-61
2021/11/21 03:22:34;;;;;;;40.58;16.58;;;;;;;4.25;100.00;99083.63;5046024;28;20350;-62
2021/11/21 03:24:59;;;;;;;37.53;15.27;;;;;;;4.28;100.00;99088.50;5046300;28;20854;-62
2021/11/21 03:27:26;;;;;;;36.25;16.65;;;;;;;4.27;100.00;99092.19;5045829;28;20041;-62
2021/11/21 03:29:51;;;;;;;34.55;15.40;;;;;;;4.23;100.00;99088.31;5045961;28;20025;-62
2021/11/21 03:32:17;;;;;;;40.83;15.82;;;;;;;4.27;100.00;99084.25;5044835;28;20071;-62
2021/11/21 03:34:43;;;;;;;37.10;15.82;;;;;;;4.30;100.00;99086.47;5045640;28;20039;-63
2021/11/21 03:37:08;;;;;;;37.60;15.75;;;;;;;4.27;100.00;99086.88;5044462;28;20033;-62
2021/11/21 03:39:34;;;;;;;44.88;17.10;;;;;;;4.25;100.00;99083.63;5045130;28;20736;-62
2021/11/21 03:42:00;;;;;;;42.38;17.13;;;;;;;4.32;100.00;99084.44;5044202;28;20536;-61
2021/11/21 03:44:25;;;;;;;41.38;15.90;;;;;;;4.28;100.00;99078.72;5042834;28;20043;-61
2021/11/21 03:46:51;;;;;;;33.97;15.18;;;;;;;4.29;100.00;99074.22;5043021;28;20045;-63
2021/11/21 03:49:16;;;;;;;40.20;15.55;;;;;;;4.34;100.00;99069.09;5044816;28;20025;-61
2021/11/21 03:51:42;;;;;;;36.47;15.60;;;;;;;4.25;100.00;99067.69;5044720;28;20067;-61
2021/11/21 03:54:07;;;;;;;36.10;15.38;;;;;;;4.26;100.00;99064.00;5045132;28;20049;-61
2021/11/21 03:56:33;;;;;;;31.75;14.63;;;;;;;4.24;100.00;99047.47;5043882;28;20091;-61
2021/11/21 03:58:58;;;;;;;37.15;15.77;;;;;;;4.25;100.00;99046.47;5044886;28;20037;-61
2021/11/21 04:01:24;;;;;;;35.55;16.20;;;;;;;4.29;100.00;99047.69;5044417;28;20205;-61
2021/11/21 04:03:49;;;;;;;36.28;14.15;;;;;;;4.28;100.00;99046.06;5044268;28;20024;-63
2021/11/21 04:06:15;;;;;;;36.22;15.88;;;;;;;4.29;100.00;99037.06;5044142;28;20048;-60
2021/11/21 04:08:42;;;;;;;39.40;16.23;;;;;;;4.33;100.00;99038.28;5045223;28;20364;-61
2021/11/21 04:11:07;;;;;;;41.10;16.95;;;;;;;4.36;100.00;99040.53;5044499;28;20060;-61
2021/11/21 04:13:33;;;;;;;39.08;14.80;;;;;;;4.37;100.00;99039.53;5044194;28;20386;-61
2021/11/21 04:15:58;;;;;;;38.75;15.27;;;;;;;4.40;100.00;99030.34;5038429;28;20834;-61
2021/11/21 04:18:24;;;;;;;32.33;13.05;;;;;;;4.33;100.00;99038.28;5042363;28;20089;-61
2021/11/21 04:20:49;;;;;;;39.95;15.68;;;;;;;4.36;100.00;99035.22;5043402;28;20132;-61
2021/11/21 04:23:15;;;;;;;34.88;15.50;;;;;;;4.34;100.00;99018.69;5042657;28;20032;-61
2021/11/21 04:25:40;;;;;;;40.45;16.48;;;;;;;4.34;100.00;99013.38;5038140;28;20045;-61
2021/11/21 04:28:08;;;;;;;36.63;16.38;;;;;;;4.29;100.00;99021.16;5041460;28;20372;-61
2021/11/21 04:30:34;;;;;;;39.45;16.40;;;;;;;4.32;100.00;99026.88;5037839;28;20502;-60
2021/11/21 04:33:00;;;;;;;37.05;16.10;;;;;;;4.31;100.00;99029.72;5041499;28;20040;-61
2021/11/21 04:35:25;;;;;;;39.80;16.17;;;;;;;4.29;100.00;99026.44;5043602;28;20072;-60
2021/11/21 04:37:51;;;;;;;41.83;16.70;;;;;;;4.31;100.00;99024.41;5040360;28;20083;-61
2021/11/21 04:40:17;;;;;;;34.47;14.98;;;;;;;4.43;100.00;99012.16;5039732;28;20375;-61
2021/11/21 04:42:42;;;;;;;35.45;15.20;;;;;;;4.30;100.00;99012.19;5043797;28;20147;-61
2021/11/21 04:45:08;;;;;;;35.45;16.08;;;;;;;4.31;100.00;99005.84;5044083;28;20716;-60
2021/11/21 04:47:34;;;;;;;34.95;15.77;;;;;;;4.33;100.00;99009.09;5027084;28;20033;-61
2021/11/21 04:49:59;;;;;;;28.65;13.32;;;;;;;4.31;100.00;99013.81;5039546;28;20358;-63
2021/11/21 04:52:25;;;;;;;37.83;16.90;;;;;;;4.23;100.00;99006.06;5043685;28;20052;-63
2021/11/21 04:54:50;;;;;;;43.20;17.17;;;;;;;4.17;100.00;98998.91;5043954;28;20028;-61
2021/11/21 04:57:17;;;;;;;40.10;17.60;;;;;;;4.20;100.00;98990.56;5043580;28;20560;-61
2021/11/21 04:59:43;;;;;;;36.53;15.77;;;;;;;4.16;100.00;98987.50;5042074;28;20043;-61
2021/11/21 05:02:08;;;;;;;37.60;16.30;;;;;;;4.17;100.00;98994.44;5035186;28;20111;-61
2021/11/21 05:04:34;;;;;;;33.05;14.85;;;;;;;4.20;100.00;98985.25;5041935;28;20049;-61
2021/11/21 05:07:00;;;;;;;33.20;15.70;;;;;;;4.19;100.00;98988.91;5041336;28;20064;-62
2021/11/21 05:09:25;;;;;;;33.92;15.10;;;;;;;4.14;100.00;98991.38;5041859;28;20487;-61
2021/11/21 05:11:51;;;;;;;41.67;16.25;;;;;;;4.19;100.00;98978.31;5042402;28;20045;-61
2021/11/21 05:14:20;;;;;;;35.17;15.98;;;;;;;4.13;100.00;98979.16;5041651;28;20040;-63
2021/11/21 05:16:45;;;;;;;38.75;14.85;;;;;;;4.20;100.00;98986.06;5042608;28;20087;-61
2021/11/21 05:19:11;;;;;;;39.92;15.88;;;;;;;4.21;100.00;98982.38;5041764;28;20024;-61
2021/11/21 05:21:37;;;;;;;35.33;15.25;;;;;;;4.22;100.00;98980.53;5042105;28;20037;-61
2021/11/21 05:24:02;;;;;;;34.75;14.63;;;;;;;4.28;100.00;98971.78;5037625;28;20495;-61
2021/11/21 05:26:28;;;;;;;35.92;15.02;;;;;;;4.24;100.00;98970.53;5042187;28;20373;-61
2021/11/21 05:28:53;;;;;;;32.95;14.38;;;;;;;4.27;100.00;98975.47;5043131;28;20029;-61
2021/11/21 05:31:19;;;;;;;36.88;16.25;;;;;;;4.25;100.00;98978.31;5042096;28;20099;-62
2021/11/21 05:33:45;;;;;;;37.90;17.60;;;;;;;4.21;100.00;98981.56;5038242;28;20033;-61
2021/11/21 05:36:10;;;;;;;36.15;15.25;;;;;;;4.19;100.00;98976.47;5040452;28;20107;-63
2021/11/21 05:38:36;;;;;;;34.60;15.40;;;;;;;4.21;100.00;98982.38;5042916;28;20029;-61
2021/11/21 05:41:01;;;;;;;35.90;15.63;;;;;;;4.20;100.00;98970.16;5042415;28;20083;-61
2021/11/21 05:43:27;;;;;;;34.15;14.40;;;;;;;4.27;100.00;98975.47;5042755;28;20288;-61
2021/11/21 05:45:52;;;;;;;32.40;14.55;;;;;;;4.19;100.00;98973.81;5042697;28;20037;-63
2021/11/21 05:48:18;;;;;;;39.45;17.15;;;;;;;4.19;100.00;98970.34;5042432;28;20033;-62
2021/11/21 05:50:43;;;;;;;34.60;15.43;;;;;;;4.17;100.00;98967.94;5042319;28;20805;-62
2021/11/21 05:53:09;;;;;;;36.85;15.65;;;;;;;4.18;100.00;98968.72;5039500;28;20474;-62
2021/11/21 05:55:35;;;;;;;36.92;14.95;;;;;;;4.13;100.00;98973.84;5040203;28;20041;-61
2021/11/21 05:58:00;;;;;;;33.53;15.23;;;;;;;4.26;100.00;98979.13;5041021;28;20471;-62
2021/11/21 06:00:26;;;;;;;39.67;14.95;;;;;;;4.27;100.00;98983.41;5036519;28;20056;-62
2021/11/21 06:02:52;;;;;;;38.13;15.52;;;;;;;4.18;100.00;98976.69;5039854;28;20553;-62
2021/11/21 06:05:18;;;;;;;35.13;15.25;;;;;;;4.16;100.00;98979.53;5039726;28;20045;-61
2021/11/21 06:07:43;;;;;;;37.90;17.08;;;;;;;4.13;100.00;98979.16;5039688;28;20045;-62
2021/11/21 06:10:09;;;;;;;35.80;15.23;;;;;;;4.14;100.00;98970.16;5033818;28;20512;-61
2021/11/21 06:12:35;;;;;;;38.55;15.57;;;;;;;4.15;100.00;98977.13;5038561;28;20075;-62
2021/11/21 06:15:00;;;;;;;35.33;14.70;;;;;;;4.10;100.00;98969.78;5039731;28;20573;-62
2021/11/21 06:17:26;;;;;;;38.92;15.82;;;;;;;4.10;100.00;98975.88;5037280;28;20047;-62
2021/11/21 06:19:51;;;;;;;36.60;14.85;;;;;;;4.08;100.00;98969.97;5039678;28;20460;-62
2021/11/21 06:22:18;;;;;;;39.00;15.73;;;;;;;4.13;100.00;98965.88;5038344;28;20402;-61
2021/11/21 06:24:44;;;;;;;28.67;12.10;;;;;;;4.17;100.00;98969.75;5040621;28;20040;-61
2021/11/21 06:27:09;;;;;;;28.67;13.45;;;;;;;4.24;100.00;98959.94;5039853;28;20053;-61
2021/11/21 06:29:35;;;;;;;35.15;14.38;;;;;;;4.12;100.00;98957.13;5040637;28;20048;-62
2021/11/21 06:32:00;;;;;;;34.72;14.68;;;;;;;4.16;100.00;98957.50;5037238;28;20041;-62
2021/11/21 06:34:26;;;;;;;30.95;14.30;;;;;;;4.18;100.00;98958.13;5038284;28;20171;-62
2021/11/21 06:36:51;;;;;;;30.83;13.90;;;;;;;4.22;100.00;98956.66;5038774;28;20558;-61
2021/11/21 06:39:17;;;;;;;33.17;14.07;;;;;;;4.18;100.00;98948.31;5030786;28;20025;-62
2021/11/21 06:41:42;;;;;;;35.95;14.63;;;;;;;4.19;100.00;98947.28;5041381;28;20473;-61
2021/11/21 06:44:09;;;;;;;34.08;14.35;;;;;;;4.15;100.00;98945.28;5044934;28;20033;-61
2021/11/21 06:46:34;;;;;;;35.63;15.15;;;;;;;4.26;100.00;98941.97;5044062;28;20045;-61
2021/11/21 06:49:00;;;;;;;33.40;12.68;;;;;;;4.23;100.00;98931.78;5043834;28;20215;-61
2021/11/21 06:51:27;;;;;;;26.63;10.60;;;;;;;4.26;100.00;98937.47;5042845;28;20139;-61
2021/11/21 06:53:52;;;;;;;34.97;14.60;;;;;;;4.26;100.00;98937.47;5043181;28;20029;-62
2021/11/21 06:56:18;;;;;;;37.83;15.63;;;;;;;4.25;100.00;98935.06;5040440;28;20466;-61
2021/11/21 06:58:43;;;;;;;33.78;14.07;;;;;;;4.28;100.00;98939.94;5036871;28;20041;-61
2021/11/21 07:01:09;;;;;;;30.75;13.55;;;;;;;4.32;100.00;98941.16;5042335;28;20063;-62
2021/11/21 07:03:35;;;;;;;35.72;15.77;;;;;;;4.35;100.00;98935.44;5030509;28;20029;-62
2021/11/21 07:06:00;;;;;;;34.47;15.70;;;;;;;4.30;100.00;98938.69;5042701;28;20037;-61
2021/11/21 07:08:26;;;;;;;37.13;15.00;;;;;;;4.24;100.00;98938.72;5043568;28;20021;-61
2021/11/21 07:10:51;;;;;;;33.25;13.13;;;;;;;4.17;100.00;98943.22;5041893;28;20045;-62
2021/11/21 07:13:17;;;;;;;32.47;14.15;;;;;;;4.26;100.00;98936.66;5041461;28;20057;-61
2021/11/21 07:15:42;;;;;;;38.97;15.68;;;;;;;4.26;100.00;98936.66;5043262;28;20056;-61
2021/11/21 07:18:08;;;;;;;34.08;13.70;;;;;;;4.22;100.00;98941.59;5043583;28;20087;-61
2021/11/21 07:20:34;;;;;;;28.73;13.38;;;;;;;4.26;100.00;98936.66;5044598;28;20152;-61
2021/11/21 07:22:59;;;;;;;30.85;14.30;;;;;;;4.30;100.00;98933.41;5045194;28;20561;-61
2021/11/21 07:25:25;;;;;;;34.65;15.20;;;;;;;4.38;100.00;98940.31;5045761;28;20124;-61
2021/11/21 07:27:52;;;;;;;31.45;13.80;;;;;;;4.40;100.00;98940.09;5044792;28;20052;-62
2021/11/21 07:30:20;;;;;;;28.20;13.45;;;;;;;4.44;100.00;98938.66;5035210;28;20118;-61
2021/11/21 07:32:46;;;;;;;26.45;11.90;;;;;;;4.42;100.00;98933.56;5041959;28;20037;-61
2021/11/21 07:35:16;;;;;;;26.73;13.50;;;;;;;4.42;100.00;98940.69;5037973;28;20036;-61
2021/11/21 07:37:41;;;;;;;31.75;13.40;;;;;;;4.43;100.00;98937.84;5034512;28;20832;-61
2021/11/21 07:40:10;;;;;;;25.00;12.25;;;;;;;4.44;100.00;98942.13;5042673;28;20033;-61
2021/11/21 07:42:35;;;;;;;27.52;13.25;;;;;;;4.47;100.00;98940.91;5045491;28;20021;-61
2021/11/21 07:45:01;;;;;;;28.63;13.30;;;;;;;4.44;100.00;98947.44;5045158;28;20039;-60
2021/11/21 07:47:26;;;;;;;32.58;14.50;;;;;;;4.51;100.00;98939.44;5042824;28;20037;-62
2021/11/21 07:49:53;;;;;;;23.38;11.07;;;;;;;4.52;100.00;98946.41;5044506;28;20041;-61
2021/11/21 07:52:19;;;;;;;28.13;13.82;;;;;;;4.62;100.00;98932.66;5038986;28;20435;-61
2021/11/21 07:54:45;;;;;;;23.92;11.40;;;;;;;4.57;100.00;98935.13;5039326;28;20033;-61
2021/11/21 07:57:11;;;;;;;25.33;12.85;;;;;;;4.70;100.00;98935.09;5043298;28;20476;-62
2021/11/21 07:59:36;;;;;;;24.17;11.95;;;;;;;4.61;100.00;98942.47;5043523;28;20047;-61
2021/11/21 08:02:02;;;;;;;21.52;11.18;;;;;;;4.68;100.00;98934.47;5043029;28;20055;-61
2021/11/21 08:04:27;;;;;;;20.52;10.75;;;;;;;4.78;100.00;98934.03;5042756;28;20090;-61
2021/11/21 08:06:53;;;;;;;20.48;10.60;;;;;;;4.79;100.00;98936.44;5055935;28;20070;-61
2021/11/21 08:09:19;;;;;;;24.63;11.55;;;;;;;4.90;100.00;98935.78;5043091;28;20371;-61
2021/11/21 08:11:44;;;;;;;21.20;11.90;;;;;;;5.05;100.00;98934.69;5043226;28;20095;-63
2021/11/21 08:14:10;;;;;;;23.23;11.75;;;;;;;4.97;99.88;98939.25;5044038;28;20029;-61
2021/11/21 08:16:35;;;;;;;19.63;10.57;;;;;;;4.94;99.13;98934.34;5044413;28;20120;-61
2021/11/21 08:19:02;;;;;;;18.58;10.48;;;;;;;4.97;99.95;98939.25;5043752;28;20493;-62
2021/11/21 08:21:28;;;;;;;18.75;10.07;;;;;;;5.09;99.75;98947.34;5042049;28;20041;-61
2021/11/21 08:23:53;;;;;;;22.88;10.80;;;;;;;4.98;99.44;98950.66;5038488;28;20827;-61
2021/11/21 08:26:19;;;;;;;18.73;10.77;;;;;;;4.90;99.97;98961.53;5040266;28;20037;-61
2021/11/21 08:28:44;;;;;;;21.23;9.90;;;;;;;4.84;100.00;98957.91;5042285;28;20029;-62
2021/11/21 08:31:10;;;;;;;22.23;10.45;;;;;;;4.90;100.00;98965.00;5043122;28;20045;-62
2021/11/21 08:33:35;;;;;;;20.60;10.68;;;;;;;4.86;100.00;98962.97;5044338;28;20040;-61
2021/11/21 08:36:01;;;;;;;19.85;9.38;;;;;;;4.81;100.00;98958.31;5043440;28;20059;-63
2021/11/21 08:38:27;;;;;;;18.15;10.18;;;;;;;4.81;100.00;98955.66;5036641;28;20029;-61
2021/11/21 08:40:52;;;;;;;23.45;11.30;;;;;;;4.92;100.00;98962.97;5041551;28;20190;-61
2021/11/21 08:43:18;;;;;;;21.55;9.30;;;;;;;4.80;100.00;98951.38;5043950;28;20032;-61
2021/11/21 08:45:45;;;;;;;21.50;10.65;;;;;;;4.84;100.00;98949.94;5042563;28;20041;-59
2021/11/21 08:48:11;;;;;;;21.98;9.18;;;;;;;4.94;100.00;98950.28;5043095;28;20403;-60
2021/11/21 08:50:37;;;;;;;20.05;9.85;;;;;;;5.01;100.00;98949.44;5042224;28;20044;-62
2021/11/21 08:53:03;;;;;;;15.60;8.85;;;;;;;5.02;100.00;98945.72;5042997;28;20044;-65
2021/11/21 08:55:28;;;;;;;23.85;10.57;;;;;;;5.05;100.00;98945.31;5043139;28;20207;-62
2021/11/21 08:57:54;;;;;;;19.90;10.45;;;;;;;5.08;99.71;98951.00;5043124;28;22066;-62
2021/11/21 09:00:20;;;;;;;26.98;11.10;;;;;;;5.33;100.00;98944.94;5042771;28;20075;-61
2021/11/21 09:02:46;;;;;;;19.55;9.98;;;;;;;5.19;98.52;98949.50;5043946;28;20041;-61
2021/11/21 09:05:12;;;;;;;17.58;9.20;;;;;;;5.17;99.43;98948.94;5041749;28;20063;-61
2021/11/21 09:07:38;;;;;;;16.02;8.07;;;;;;;5.22;98.32;98941.13;5043323;28;20033;-61
2021/11/21 09:10:05;;;;;;;17.02;8.60;;;;;;;5.22;98.26;98945.59;5043454;28;20032;-60
2021/11/21 09:12:31;;;;;;;16.60;8.93;;;;;;;5.30;98.04;98943.53;5041894;28;20039;-61
2021/11/21 09:14:56;;;;;;;16.05;8.70;;;;;;;5.49;97.93;98935.59;5042665;28;20036;-61
2021/11/21 09:17:22;;;;;;;14.50;8.27;;;;;;;5.50;97.16;98926.63;5038580;28;20107;-64
2021/11/21 09:19:47;;;;;;;14.60;7.72;;;;;;;5.62;96.90;98931.00;5043659;28;20039;-63
2021/11/21 09:22:13;;;;;;;12.00;6.90;;;;;;;5.64;96.26;98933.44;5041978;28;20048;-64
2021/11/21 09:24:39;;;;;;;12.63;7.40;;;;;;;5.62;96.10;98927.56;5035166;28;20358;-65
2021/11/21 09:27:05;;;;;;;14.80;7.95;;;;;;;5.68;96.87;98931.97;5042488;28;20080;-62
2021/11/21 09:29:31;;;;;;;16.58;8.13;;;;;;;5.80;95.86;98935.56;5043343;28;20040;-62
2021/11/21 09:31:56;;;;;;;14.88;8.15;;;;;;;5.96;95.33;98933.41;5042284;28;20072;-61
2021/11/21 09:34:22;;;;;;;14.35;7.72;;;;;;;5.86;95.56;98935.72;5042563;28;20563;-64
2021/11/21 09:36:47;;;;;;;15.23;8.23;;;;;;;5.65;95.45;98928.97;5042291;28;20460;-65
2021/11/21 09:39:13;;;;;;;12.57;7.35;;;;;;;5.81;95.72;98925.72;5028519;28;20044;-64
2021/11/21 09:41:39;;;;;;;15.00;8.35;;;;;;;5.99;95.33;98919.66;5038164;28;20485;-63
2021/11/21 09:44:07;;;;;;;16.25;7.93;;;;;;;6.01;94.88;98912.25;5037900;28;20033;-64
2021/11/21 09:46:32;;;;;;;14.27;7.78;;;;;;;6.33;94.47;98904.97;5036021;28;20048;-65
2021/11/21 09:48:58;;;;;;;13.75;7.97;;;;;;;7.20;90.72;98912.63;5040344;28;20032;-63
2021/11/21 09:51:24;;;;;;;12.88;8.10;;;;;;;7.22;89.61;98917.75;5039912;28;20060;-64
2021/11/21 09:53:50;;;;;;;12.88;6.75;;;;;;;6.82;89.69;98913.78;5041502;28;20040;-64
2021/11/21 09:56:16;;;;;;;12.63;6.85;;;;;;;6.86;89.50;98914.97;5033908;28;20507;-64
2021/11/21 09:58:41;;;;;;;12.68;6.75;;;;;;;6.77;90.71;98916.31;5033947;28;20154;-64
2021/11/21 10:01:07;;;;;;;11.25;7.25;;;;;;;6.65;91.09;98910.13;5037618;28;20048;-64
2021/11/21 10:03:44;;;;;;;18.05;7.03;;;;;;;7.05;90.45;98918.38;5032870;28;20029;-65
2021/11/21 10:06:09;;;;;;;13.63;6.07;;;;;;;6.60;90.71;98916.09;5038343;28;20048;-65
2021/11/21 10:08:35;;;;;;;11.20;6.88;;;;;;;6.73;91.81;98915.13;5041181;28;20027;-64
2021/11/21 10:11:02;;;;;;;11.60;6.45;;;;;;;6.69;90.69;98916.63;5017363;28;20157;-64
2021/11/21 10:13:38;;;;;;;14.60;8.80;;;;;;;6.82;91.42;98912.97;5041143;28;20033;-66
2021/11/21 10:16:19;;;;;;;12.88;6.85;;;;;;;6.70;90.75;98908.41;5038877;28;20046;-65
2021/11/21 10:18:47;;;;;;;11.25;7.03;;;;;;;6.69;92.23;98920.09;5042497;28;20576;-65
2021/11/21 10:21:13;;;;;;;12.73;6.30;;;;;;;6.73;90.83;98912.47;5038365;28;20060;-66
2021/11/21 10:23:38;;;;;;;8.73;5.68;;;;;;;6.60;90.47;98913.44;5038313;28;20029;-65
2021/11/21 10:26:04;;;;;;;9.40;5.50;;;;;;;6.82;91.86;98908.44;5037358;28;20410;-65
2021/11/21 10:28:32;;;;;;;10.57;6.40;;;;;;;6.94;91.35;98905.00;5039848;28;20059;-65
2021/11/21 10:31:04;;;;;;;16.23;10.82;;;;;;;7.16;90.18;98902.63;5040223;28;20033;-66
2021/11/21 10:33:36;;;;;;;12.02;7.57;;;;;;;7.07;91.08;98905.63;5041351;28;20498;-65
2021/11/21 10:36:08;;;;;;;11.82;6.18;;;;;;;6.70;91.86;98904.94;5039235;28;20248;-65
2021/11/21 10:38:45;;;;;;;9.13;5.20;;;;;;;6.57;91.90;98903.25;5038768;28;20512;-64
2021/11/21 10:41:22;;;;;;;12.90;6.72;;;;;;;6.84;92.94;98897.56;5038916;28;20235;-64
2021/11/21 10:44:00;;;;;;;9.43;5.70;;;;;;;6.65;91.72;98897.59;5042337;28;20456;-65
2021/11/21 10:46:56;;;;;;;11.18;6.60;;;;;;;6.63;92.65;98894.34;5040699;28;20551;-66
2021/11/21 10:49:28;;;;;;;9.30;6.20;;;;;;;6.73;93.43;98888.50;5040473;28;20029;-64
2021/11/21 10:51:56;;;;;;;12.30;7.53;;;;;;;6.77;92.87;98884.34;5041487;28;20336;-66
2021/11/21 10:54:24;;;;;;;9.95;5.90;;;;;;;6.79;92.38;98894.75;5037359;28;20124;-64
2021/11/21 10:56:54;;;;;;;10.88;5.95;;;;;;;6.78;91.44;98891.28;5038608;28;20041;-64
2021/11/21 10:59:38;;;;;;;16.77;9.93;;;;;;;6.69;92.47;98887.34;5041828;28;20618;-64
2021/11/21 11:02:09;;;;;;;9.68;5.78;;;;;;;6.58;93.26;98888.88;5040622;28;20166;-65
2021/11/21 11:04:35;;;;;;;12.35;7.53;;;;;;;6.74;94.02;98894.63;5042635;28;20048;-66
2021/11/21 11:07:17;;;;;;;9.07;5.70;;;;;;;6.46;92.91;98888.00;5040615;28;20132;-64
2021/11/21 11:09:43;;;;;;;13.00;5.95;;;;;;;6.54;92.81;98887.72;5054680;28;20045;-64
2021/11/21 11:12:09;;;;;;;9.27;6.03;;;;;;;6.63;93.23;98886.34;5038790;28;20068;-64
2021/11/21 11:14:34;;;;;;;9.05;5.60;;;;;;;6.64;93.18;98890.66;5040327;28;20106;-65
2021/11/21 11:17:00;;;;;;;10.18;5.80;;;;;;;6.63;93.77;98890.88;5040711;28;20041;-64